createdAt,value
2019-04-16T00:02:51.379Z,42.84
2019-04-16T00:06:04.424Z,42.94
2019-04-16T00:09:24.706Z,42.99
2019-04-16T00:12:31.479Z,43.05
2019-04-16T00:15:33.346Z,43.12
2019-04-16T00:18:35.351Z,43.17
2019-04-16T00:21:48.387Z,43.30
2019-04-16T00:24:50.449Z,43.40
2019-04-16T00:27:52.319Z,43.37
2019-04-16T00:30:54.234Z,43.95
2019-04-16T00:33:56.111Z,43.81
2019-04-16T00:36:58.016Z,43.85
2019-04-16T00:39:59.947Z,44.02
2019-04-16T00:43:02.040Z,44.23
2019-04-16T00:46:08.052Z,44.39
2019-04-16T00:49:09.155Z,44.60
2019-04-16T00:52:11.071Z,44.41
2019-04-16T00:55:14.578Z,44.33
2019-04-16T00:58:19.485Z,44.49
2019-04-16T01:01:20.820Z,44.47
2019-04-16T01:04:22.761Z,44.70
2019-04-16T01:07:24.699Z,45.75
2019-04-16T01:10:26.590Z,46.80
2019-04-16T01:13:28.635Z,47.46
2019-04-16T01:16:33.002Z,47.47
2019-04-16T01:19:34.466Z,47.73
2019-04-16T01:22:36.346Z,47.56
2019-04-16T01:25:38.318Z,47.59
2019-04-16T01:28:50.805Z,48.19
2019-04-16T01:32:00.711Z,48.18
2019-04-16T01:35:06.264Z,47.96
2019-04-16T01:38:16.008Z,48.32
2019-04-16T01:41:21.674Z,48.54
2019-04-16T01:44:23.076Z,48.41
2019-04-16T01:47:25.060Z,48.63
2019-04-16T01:50:27.116Z,49.16
2019-04-16T01:53:29.012Z,49.47
2019-04-16T01:56:31.023Z,49.81
2019-04-16T01:59:35.618Z,50.25
2019-04-16T02:02:36.844Z,50.23
2019-04-16T02:05:38.726Z,50.23
2019-04-16T02:08:40.702Z,50.91
2019-04-16T02:11:42.559Z,51.29
2019-04-16T02:14:44.585Z,51.48
2019-04-16T02:17:46.540Z,51.67
2019-04-16T02:20:48.443Z,51.75
2019-04-16T02:23:50.418Z,51.63
2019-04-16T02:26:54.802Z,51.81
2019-04-16T02:29:58.513Z,51.55
2019-04-16T02:33:00.537Z,51.07
2019-04-16T02:36:02.753Z,50.75
2019-04-16T02:39:07.307Z,50.41
2019-04-16T02:42:09.236Z,50.30
2019-04-16T02:45:12.382Z,50.11
2019-04-16T02:48:16.646Z,50.06
2019-04-16T02:51:29.114Z,50.32
2019-04-16T02:54:34.476Z,50.56
2019-04-16T02:57:44.616Z,51.00
2019-04-16T03:00:50.474Z,51.19
2019-04-16T03:04:02.995Z,51.60
2019-04-16T03:07:05.002Z,51.70
2019-04-16T03:10:12.286Z,51.77
2019-04-16T03:13:11.625Z,52.14
2019-04-16T03:16:21.226Z,52.36
2019-04-16T03:19:25.075Z,52.57
2019-04-16T03:22:26.981Z,52.73
2019-04-16T03:25:29.625Z,52.91
2019-04-16T03:28:31.661Z,52.99
2019-04-16T03:31:33.560Z,52.85
2019-04-16T03:34:35.465Z,52.86
2019-04-16T03:37:37.408Z,52.76
2019-04-16T03:40:39.348Z,52.72
2019-04-16T03:43:41.344Z,52.68
2019-04-16T03:46:45.970Z,52.90
2019-04-16T03:49:47.199Z,53.16
2019-04-16T03:52:49.200Z,53.42
2019-04-16T03:55:51.179Z,53.45
2019-04-16T03:58:54.110Z,53.25
2019-04-16T04:01:56.058Z,53.10
2019-04-16T04:05:01.664Z,53.35
2019-04-16T04:08:02.238Z,52.74
2019-04-16T04:11:09.057Z,52.58
2019-04-16T04:14:08.026Z,51.92
2019-04-16T04:17:10.350Z,50.79
2019-04-16T04:20:14.666Z,49.55
2019-04-16T04:23:17.186Z,48.42
2019-04-16T04:26:19.460Z,47.18
2019-04-16T04:29:24.774Z,45.92
2019-04-16T04:32:25.343Z,44.73
2019-04-16T04:35:27.258Z,43.80
2019-04-16T04:38:29.237Z,44.14
2019-04-16T04:41:31.773Z,44.24
2019-04-16T04:44:36.949Z,42.73
2019-04-16T04:47:37.702Z,41.05
2019-04-16T04:50:39.609Z,39.78
2019-04-16T04:53:41.548Z,39.08
2019-04-16T04:56:43.436Z,38.02
2019-04-16T04:59:45.473Z,36.50
2019-04-16T05:02:48.382Z,36.00
2019-04-16T05:05:53.370Z,34.98
2019-04-16T05:08:57.576Z,34.64
2019-04-16T05:11:59.881Z,34.24
2019-04-16T05:15:03.900Z,33.27
2019-04-16T05:18:06.130Z,32.12
2019-04-16T05:21:09.684Z,31.83
2019-04-16T05:24:11.993Z,31.78
2019-04-16T05:27:13.906Z,31.06
2019-04-16T05:30:20.420Z,30.32
2019-04-16T05:33:19.827Z,30.49
2019-04-16T05:36:22.126Z,29.63
2019-04-16T05:39:28.371Z,28.91
2019-04-16T05:42:30.274Z,28.12
2019-04-16T05:45:34.531Z,27.75
2019-04-16T05:48:36.509Z,27.47
2019-04-16T05:51:38.695Z,27.26
2019-04-16T05:55:01.574Z,26.44
2019-04-16T05:58:04.006Z,26.55
2019-04-16T06:01:13.115Z,26.44
2019-04-16T06:04:14.453Z,25.74
2019-04-16T06:07:16.384Z,25.79
2019-04-16T06:10:19.197Z,25.18
2019-04-16T06:13:29.352Z,25.03
2019-04-16T06:16:53.403Z,25.09
2019-04-16T06:20:01.916Z,24.32
2019-04-16T06:23:06.933Z,23.92
2019-04-16T06:26:27.588Z,23.73
2019-04-16T06:29:47.113Z,23.85
2019-04-16T06:32:51.393Z,23.57
2019-04-16T06:35:55.442Z,23.97
2019-04-16T06:39:01.982Z,23.49
2019-04-16T06:42:22.505Z,23.12
2019-04-16T06:45:28.115Z,22.89
2019-04-16T06:48:49.673Z,22.54
2019-04-16T06:51:53.565Z,22.73
2019-04-16T06:55:06.558Z,22.38
2019-04-16T06:58:12.587Z,22.05
2019-04-16T07:01:37.341Z,21.65
2019-04-16T07:04:42.781Z,21.45
2019-04-16T07:07:47.022Z,21.22
2019-04-16T07:10:56.583Z,21.42
2019-04-16T07:13:58.610Z,21.27
2019-04-16T07:17:00.904Z,20.77
2019-04-16T07:20:06.703Z,21.00
2019-04-16T07:23:08.774Z,20.85
2019-04-16T07:26:13.861Z,20.96
2019-04-16T07:29:16.437Z,20.68
2019-04-16T07:32:35.653Z,21.12
2019-04-16T07:35:48.600Z,20.77
2019-04-16T07:39:05.020Z,20.82
2019-04-16T07:42:14.127Z,20.65
2019-04-16T07:45:35.665Z,20.96
2019-04-16T07:48:45.372Z,21.50
2019-04-16T07:51:55.246Z,20.71
2019-04-16T07:54:59.063Z,21.34
2019-04-16T07:58:01.093Z,21.34
2019-04-16T08:01:03.259Z,20.46
2019-04-16T08:04:05.232Z,21.71
2019-04-16T08:07:07.182Z,21.71
2019-04-16T08:10:09.742Z,23.25
2019-04-16T08:13:19.170Z,22.47
2019-04-16T08:16:21.165Z,22.24
2019-04-16T08:19:36.046Z,23.74
2019-04-16T08:22:27.126Z,22.76
2019-04-16T08:25:33.907Z,24.74
2019-04-16T08:28:37.300Z,22.92
2019-04-16T08:31:44.487Z,22.98
2019-04-16T08:34:44.936Z,23.72
2019-04-16T08:37:49.128Z,22.27
2019-04-16T08:40:50.935Z,24.31
2019-04-16T08:43:52.913Z,23.70
2019-04-16T08:46:54.936Z,23.31
2019-04-16T08:49:57.555Z,23.20
2019-04-16T08:52:59.477Z,23.15
2019-04-16T08:56:01.532Z,22.97
2019-04-16T08:59:03.407Z,23.49
2019-04-16T09:02:05.485Z,24.03
2019-04-16T09:05:11.322Z,23.26
2019-04-16T09:08:22.768Z,24.38
2019-04-16T09:11:24.813Z,23.72
2019-04-16T09:14:28.619Z,23.34
2019-04-16T09:17:32.378Z,23.33
2019-04-16T09:20:37.783Z,23.65
2019-04-16T09:23:39.761Z,24.70
2019-04-16T09:26:43.861Z,23.87
2019-04-16T09:29:54.075Z,25.43
2019-04-16T09:33:00.719Z,24.19
2019-04-16T09:36:06.591Z,24.13
2019-04-16T09:39:16.592Z,23.53
2019-04-16T09:42:19.270Z,24.28
2019-04-16T09:45:24.279Z,23.83
2019-04-16T09:48:25.214Z,25.46
2019-04-16T09:51:27.232Z,25.28
2019-04-16T09:54:29.153Z,24.91
2019-04-16T09:57:32.429Z,25.21
2019-04-16T10:00:39.515Z,25.06
2019-04-16T10:03:43.104Z,24.36
2019-04-16T10:06:45.060Z,25.79
2019-04-16T10:09:46.974Z,24.30
2019-04-16T10:12:48.908Z,23.96
2019-04-16T10:15:50.820Z,24.94
2019-04-16T10:18:52.771Z,25.50
2019-04-16T10:21:54.829Z,23.70
2019-04-16T10:25:07.861Z,23.75
2019-04-16T10:28:14.613Z,23.23
2019-04-16T10:31:18.426Z,24.29
2019-04-16T10:34:20.535Z,24.01
2019-04-16T10:37:22.443Z,23.07
2019-04-16T10:40:26.527Z,23.25
2019-04-16T10:43:45.459Z,23.91
2019-04-16T10:46:52.159Z,23.05
2019-04-16T10:49:55.885Z,26.67
2019-04-16T10:53:02.427Z,23.36
2019-04-16T10:56:22.894Z,22.54
2019-04-16T10:59:26.698Z,24.32
2019-04-16T11:02:31.755Z,23.86
2019-04-16T11:05:38.270Z,23.18
2019-04-16T11:08:40.233Z,23.82
2019-04-16T11:11:42.198Z,22.29
2019-04-16T11:14:44.258Z,23.36
2019-04-16T11:17:46.138Z,22.39
2019-04-16T11:20:48.068Z,20.94
2019-04-16T11:23:49.980Z,22.35
2019-04-16T11:26:51.848Z,23.70
2019-04-16T11:29:53.793Z,22.81
2019-04-16T11:32:57.962Z,23.27
2019-04-16T11:36:00.005Z,23.64
2019-04-16T11:39:01.997Z,23.17
2019-04-16T11:42:04.981Z,22.53
2019-04-16T11:45:07.739Z,22.92
2019-04-16T11:48:09.683Z,22.99
2019-04-16T11:51:11.679Z,23.49
2019-04-16T11:54:13.806Z,22.67
2019-04-16T11:57:16.340Z,22.26
2019-04-16T12:00:26.343Z,22.42
2019-04-16T12:03:47.314Z,21.83
2019-04-16T12:06:54.216Z,22.75
2019-04-16T12:10:14.988Z,24.34
2019-04-16T12:13:21.959Z,22.86
2019-04-16T12:16:38.113Z,22.56
2019-04-16T12:19:58.600Z,22.31
2019-04-16T12:23:02.447Z,22.43
2019-04-16T12:26:12.571Z,22.99
2019-04-16T12:29:25.644Z,21.95
2019-04-16T12:32:32.540Z,23.01
2019-04-16T12:35:36.388Z,23.22
2019-04-16T12:38:46.086Z,23.01
2019-04-16T12:41:59.874Z,22.50
2019-04-16T12:45:19.151Z,22.46
2019-04-16T12:48:39.685Z,25.04
2019-04-16T12:51:43.412Z,22.64
2019-04-16T12:55:02.556Z,21.40
2019-04-16T12:58:06.392Z,22.54
2019-04-16T13:01:19.925Z,22.59
2019-04-16T13:04:23.976Z,23.09
2019-04-16T13:07:30.601Z,22.88
2019-04-16T13:10:34.446Z,22.78
2019-04-16T13:13:55.237Z,23.22
2019-04-16T13:17:05.030Z,22.66
2019-04-16T13:20:10.899Z,22.32
2019-04-16T13:23:31.251Z,22.44
2019-04-16T13:26:45.199Z,22.99
2019-04-16T13:29:47.102Z,22.88
2019-04-16T13:32:49.044Z,23.71
2019-04-16T13:35:50.995Z,24.19
2019-04-16T13:38:54.793Z,23.87
2019-04-16T13:41:56.739Z,23.53
2019-04-16T13:45:15.276Z,22.88
2019-04-16T13:48:15.940Z,21.82
2019-04-16T13:51:14.867Z,21.49
2019-04-16T13:54:17.592Z,22.19
2019-04-16T13:57:21.472Z,21.51
2019-04-16T14:00:28.259Z,21.78
2019-04-16T14:03:30.266Z,22.31
2019-04-16T14:06:32.429Z,21.75
2019-04-16T14:09:34.473Z,21.96
2019-04-16T14:12:42.124Z,21.92
2019-04-16T14:15:44.838Z,22.21
2019-04-16T14:18:47.081Z,21.79
2019-04-16T14:21:48.968Z,21.40
2019-04-16T14:24:50.913Z,21.50
2019-04-16T14:27:55.368Z,21.89
2019-04-16T14:30:56.799Z,21.39
2019-04-16T14:34:15.954Z,21.43
2019-04-16T14:37:18.588Z,21.11
2019-04-16T14:40:24.235Z,21.41
2019-04-16T14:43:29.537Z,21.19
2019-04-16T14:46:31.863Z,20.96
2019-04-16T14:49:33.930Z,20.84
2019-04-16T14:52:35.884Z,21.03
2019-04-16T14:55:58.760Z,21.50
2019-04-16T14:59:03.443Z,21.15
2019-04-16T15:02:08.638Z,20.76
2019-04-16T15:05:21.718Z,21.38
2019-04-16T15:08:31.280Z,21.69
2019-04-16T15:11:51.428Z,21.11
2019-04-16T15:14:55.130Z,21.67
2019-04-16T15:18:08.165Z,21.16
2019-04-16T15:21:30.300Z,21.22
2019-04-16T15:24:50.894Z,21.89
2019-04-16T15:28:06.938Z,22.15
2019-04-16T15:31:27.324Z,21.96
2019-04-16T15:34:43.017Z,21.53
2019-04-16T15:37:57.912Z,22.02
2019-04-16T15:41:18.420Z,21.92
2019-04-16T15:44:24.659Z,22.16
2019-04-16T15:47:32.374Z,22.29
2019-04-16T15:50:39.517Z,22.04
2019-04-16T15:53:50.564Z,21.74
2019-04-16T15:57:11.614Z,22.32
2019-04-16T16:00:32.721Z,22.25
2019-04-16T16:03:36.974Z,22.63
2019-04-16T16:06:48.761Z,21.79
2019-04-16T16:09:52.594Z,22.47
2019-04-16T16:12:54.800Z,22.98
2019-04-16T16:15:56.762Z,22.63
2019-04-16T16:18:58.747Z,21.98
2019-04-16T16:22:00.665Z,22.22
2019-04-16T16:25:06.096Z,22.45
2019-04-16T16:28:08.197Z,22.31
2019-04-16T16:31:10.175Z,22.92
2019-04-16T16:34:12.108Z,22.13
2019-04-16T16:37:14.170Z,21.87
2019-04-16T16:40:16.233Z,21.84
2019-04-16T16:43:18.396Z,22.61
2019-04-16T16:46:55.700Z,22.44
2019-04-16T16:49:44.527Z,22.68
2019-04-16T16:52:54.467Z,23.00
2019-04-16T16:55:59.113Z,22.86
2019-04-16T16:59:05.912Z,22.95
2019-04-16T17:02:18.642Z,22.95
2019-04-16T17:05:25.380Z,23.30
2019-04-16T17:08:30.168Z,23.67
2019-04-16T17:11:31.167Z,24.22
2019-04-16T17:14:36.460Z,24.55
2019-04-16T17:17:37.250Z,24.46
2019-04-16T17:20:41.337Z,24.71
2019-04-16T17:23:43.160Z,24.84
2019-04-16T17:26:47.000Z,25.01
2019-04-16T17:29:49.721Z,25.41
2019-04-16T17:32:52.792Z,25.52
2019-04-16T17:35:54.905Z,26.07
2019-04-16T17:38:56.877Z,26.07
2019-04-16T17:42:05.046Z,26.28
2019-04-16T17:45:26.091Z,26.48
2019-04-16T17:48:39.123Z,26.61
2019-04-16T17:51:48.381Z,26.76
2019-04-16T17:54:59.088Z,26.79
2019-04-16T17:58:09.346Z,26.96
2019-04-16T18:01:15.094Z,27.05
2019-04-16T18:04:37.527Z,27.04
2019-04-16T18:07:41.308Z,27.06
2019-04-16T18:10:47.828Z,27.06
2019-04-16T18:13:57.380Z,27.12
2019-04-16T18:17:04.595Z,27.17
2019-04-16T18:20:27.111Z,27.46
2019-04-16T18:23:47.825Z,27.76
2019-04-16T18:27:08.259Z,27.92
2019-04-16T18:30:14.210Z,28.29
2019-04-16T18:33:19.777Z,28.47
2019-04-16T18:36:23.504Z,28.68
2019-04-16T18:39:37.216Z,28.96
2019-04-16T18:42:50.257Z,29.21
2019-04-16T18:46:08.655Z,29.67
2019-04-16T18:49:18.240Z,29.85
2019-04-16T18:52:20.201Z,30.38
2019-04-16T18:55:22.867Z,30.54
2019-04-16T18:58:26.514Z,30.84
2019-04-16T19:01:32.648Z,30.97
2019-04-16T19:04:35.193Z,31.18
2019-04-16T19:07:37.158Z,31.56
2019-04-16T19:10:39.682Z,31.37
2019-04-16T19:13:42.785Z,31.63
2019-04-16T19:16:47.704Z,31.93
2019-04-16T19:19:53.286Z,32.50
2019-04-16T19:22:55.283Z,32.35
2019-04-16T19:25:57.459Z,32.46
2019-04-16T19:28:59.746Z,32.71
2019-04-16T19:32:03.477Z,32.72
2019-04-16T19:35:10.111Z,32.88
2019-04-16T19:38:12.040Z,32.89
2019-04-16T19:41:14.396Z,33.34
2019-04-16T19:44:16.356Z,33.17
2019-04-16T19:47:18.355Z,33.18
2019-04-16T19:50:20.951Z,33.17
2019-04-16T19:53:24.769Z,33.29
2019-04-16T19:56:27.366Z,33.35
2019-04-16T19:59:29.360Z,33.62
2019-04-16T20:02:33.957Z,33.82
2019-04-16T20:05:36.112Z,33.58
2019-04-16T20:08:39.963Z,33.64
2019-04-16T20:11:43.590Z,33.72
2019-04-16T20:14:47.499Z,33.81
2019-04-16T20:17:52.487Z,34.03
2019-04-16T20:20:55.395Z,33.95
2019-04-16T20:23:57.565Z,34.07
2019-04-16T20:27:04.886Z,34.08
2019-04-16T20:30:06.234Z,34.24
2019-04-16T20:33:08.498Z,34.36
2019-04-16T20:36:10.458Z,34.56
2019-04-16T20:39:12.322Z,34.39
2019-04-16T20:42:15.833Z,34.44
2019-04-16T20:45:20.134Z,34.60
2019-04-16T20:48:22.083Z,34.63
2019-04-16T20:51:26.535Z,34.89
2019-04-16T20:54:30.629Z,34.82
2019-04-16T20:57:32.665Z,34.98
2019-04-16T21:00:42.286Z,35.27
2019-04-16T21:03:43.905Z,35.04
2019-04-16T21:06:45.880Z,35.10
2019-04-16T21:09:47.832Z,35.20
2019-04-16T21:12:49.805Z,35.26
2019-04-16T21:15:51.743Z,35.29
2019-04-16T21:18:53.656Z,35.36
2019-04-16T21:21:57.952Z,35.63
2019-04-16T21:24:59.620Z,35.84
2019-04-16T21:28:15.631Z,36.02
2019-04-16T21:31:19.346Z,36.25
2019-04-16T21:34:29.648Z,36.28
2019-04-16T21:37:34.488Z,36.28
2019-04-16T21:40:36.522Z,36.64
2019-04-16T21:43:39.713Z,36.81
2019-04-16T21:46:42.350Z,36.87
2019-04-16T21:49:45.759Z,36.97
2019-04-16T21:52:48.242Z,37.33
2019-04-16T21:55:50.183Z,37.29
2019-04-16T21:58:52.203Z,37.37
2019-04-16T22:01:54.523Z,37.53
2019-04-16T22:04:57.537Z,37.70
2019-04-16T22:07:59.576Z,37.80
2019-04-16T22:11:01.798Z,37.90
2019-04-16T22:14:03.856Z,38.54
2019-04-16T22:17:05.824Z,38.77
2019-04-16T22:20:07.929Z,38.43
2019-04-16T22:23:09.931Z,38.47
2019-04-16T22:26:11.880Z,38.80
2019-04-16T22:29:15.645Z,39.29
2019-04-16T22:32:17.727Z,39.09
2019-04-16T22:35:19.824Z,39.06
2019-04-16T22:38:21.812Z,39.38
2019-04-16T22:41:34.596Z,39.48
2019-04-16T22:44:38.336Z,39.65
2019-04-16T22:47:42.099Z,39.83
2019-04-16T22:50:43.997Z,39.95
2019-04-16T22:53:46.485Z,40.08
2019-04-16T22:57:01.921Z,40.27
2019-04-16T23:00:11.751Z,40.43
2019-04-16T23:03:16.634Z,40.94
2019-04-16T23:06:20.076Z,41.16
2019-04-16T23:09:23.906Z,41.89
2019-04-16T23:12:28.045Z,42.15
2019-04-16T23:15:29.638Z,42.18
2019-04-16T23:18:31.529Z,42.43
2019-04-16T23:21:33.398Z,42.80
2019-04-16T23:24:35.435Z,42.83
2019-04-16T23:27:38.191Z,43.21
2019-04-16T23:30:40.956Z,42.85
2019-04-16T23:33:42.896Z,42.87
2019-04-16T23:36:48.571Z,43.07
2019-04-16T23:39:48.627Z,43.45
2019-04-16T23:42:54.876Z,43.78
2019-04-16T23:46:15.478Z,43.65
2019-04-16T23:49:34.719Z,43.66
2019-04-16T23:52:38.480Z,43.76
2019-04-16T23:56:00.331Z,43.80
2019-04-16T23:59:13.410Z,44.04
